Sekiu, Washington
Current Conditions -  °F | °C
As of 1:14 AM on Wednesday 22 Oct 2014 (Local Time) from KUIL Reporting Station
Heavy Rain Heavy Rain  
Wind Chill: 55°   Ceiling: 1400
Heat Index: 55°   Visibility: 1mi
Dew Point: 54°   Wind: 16mph
Humidity: 96%   Direction: 170°S
Pressure: 29.53"   Gusts: 30mph
Location:  48.26°N, 124.3°W
Report Text: KUIL 220814Z AUTO 17014G26KT 130V200 1SM +RA BR SCT009 BKN014 OVC018 13/12 A2953 RMK AO2 PK WND 16027/0803 P0022 T01280122
Loading
Personal Weather Stations






























Interactive Weather Map
Tropical Storm Tracking
New forecast layout! Learn more

10-Day Weather Forecast

Advertisements
Track Severe Weather on mobile